Time;durP1;ratioP1;P1;durP2;ratioP2;P2;SDS_P1;SDS_P2;PMS_P1;PMS_P2;Temp;Humidity;BMP_temperature;BMP_pressure;BME280_temperature;BME280_humidity;BME280_pressure;Samples;Min_cycle;Max_cycle;Signal;HPM_P1;HPM_P2
2023/03/14 00:00:08;;;;;;;;;;;;;;;16.11;45.21;101350.91;4999874;28;1080;-43
2023/03/14 00:02:34;;;;;;;;;;;;;;;15.66;46.51;101355.50;4999566;28;1119;-41
2023/03/14 00:05:02;;;;;;;;;;;;;;;15.45;46.95;101342.59;5000311;28;1148;-43
2023/03/14 00:07:28;;;;;;;;;;;;;;;15.22;47.45;101339.81;5000066;28;1906;-42
2023/03/14 00:09:53;;;;;;;;;;;;;;;16.08;45.54;101340.44;4999503;28;1036;-42
2023/03/14 00:12:19;;;;;;;;;;;;;;;17.27;42.94;101331.41;4999790;28;1201;-43
2023/03/14 00:14:44;;;;;;;;;;;;;;;16.18;45.24;101334.25;4999957;28;1196;-44
2023/03/14 00:17:10;;;;;;;;;;;;;;;15.67;46.42;101329.75;4999893;28;1161;-40
2023/03/14 00:19:35;;;;;;;;;;;;;;;15.44;46.95;101333.53;4999618;28;1126;-44
2023/03/14 00:22:01;;;;;;;;;;;;;;;15.29;47.31;101330.56;4999510;28;1158;-43
2023/03/14 00:24:26;;;;;;;;;;;;;;;16.84;43.93;101327.75;4999795;28;1029;-43
2023/03/14 00:26:52;;;;;;;;;;;;;;;16.22;45.02;101324.41;4999598;28;1969;-43
2023/03/14 00:29:17;;;;;;;;;;;;;;;15.66;46.34;101317.13;4999430;28;1135;-42
2023/03/14 00:31:44;;;;;;;;;;;;;;;15.36;47.34;101312.88;4998765;28;1138;-43
2023/03/14 00:34:10;;;;;;;;;;;;;;;15.69;46.56;101302.09;4999769;28;1060;-44
2023/03/14 00:36:35;;;;;;;;;;;;;;;17.16;43.10;101294.75;4999546;28;1048;-44
2023/03/14 00:39:01;;;;;;;;;;;;;;;16.50;44.49;101286.81;4999456;28;1083;-45
2023/03/14 00:41:26;;;;;;;;;;;;;;;15.86;46.17;101274.63;4999747;28;1084;-44
2023/03/14 00:43:52;;;;;;;;;;;;;;;15.46;46.88;101273.00;4999150;28;1181;-44
2023/03/14 00:46:19;;;;;;;;;;;;;;;15.62;46.91;101276.78;4998908;28;1107;-42
2023/03/14 00:48:45;;;;;;;;;;;;;;;17.17;43.19;101268.13;4998734;28;1979;-44
2023/03/14 00:51:13;;;;;;;;;;;;;;;16.16;45.28;101262.31;4997081;28;1068;-45
2023/03/14 00:53:42;;;;;;;;;;;;;;;15.65;46.60;101266.09;4997951;28;1271;-42
2023/03/14 00:56:09;;;;;;;;;;;;;;;15.43;46.96;101252.44;4999126;28;1160;-41
2023/03/14 00:58:34;;;;;;;;;;;;;;;15.25;47.52;101249.97;4998041;28;1613;-43
2023/03/14 01:01:04;;;;;;;;;;;;;;;16.74;43.87;101249.66;4998843;28;1056;-45
2023/03/14 01:03:30;;;;;;;;;;;;;;;16.84;43.39;101245.34;4996685;28;1115;-42
2023/03/14 01:06:06;;;;;;;;;;;;;;;15.91;45.87;101252.75;4999001;28;1116;-41
2023/03/14 01:08:31;;;;;;;;;;;;;;;15.57;46.70;101247.38;4998981;28;1922;-43
2023/03/14 01:10:57;;;;;;;;;;;;;;;15.35;47.27;101250.13;4998797;28;1137;-38
2023/03/14 01:13:23;;;;;;;;;;;;;;;16.25;45.06;101247.06;4998947;28;1146;-42
2023/03/14 01:15:48;;;;;;;;;;;;;;;17.30;42.81;101247.59;4998637;28;1085;-44
2023/03/14 01:18:14;;;;;;;;;;;;;;;16.15;45.17;101252.44;4999121;28;1057;-42
2023/03/14 01:20:39;;;;;;;;;;;;;;;15.67;46.41;101246.66;4997510;28;1527;-41
2023/03/14 01:23:05;;;;;;;;;;;;;;;15.42;46.93;101250.75;4998760;28;1041;-46
2023/03/14 01:25:31;;;;;;;;;;;;;;;15.26;47.50;101248.88;4997551;28;1153;-42
2023/03/14 01:27:56;;;;;;;;;;;;;;;16.06;45.49;101244.69;4997329;28;1977;-43
2023/03/14 01:30:22;;;;;;;;;;;;;;;17.20;42.93;101245.59;4998701;28;1115;-43
2023/03/14 01:32:48;;;;;;;;;;;;;;;16.11;45.26;101243.06;4996733;28;1317;-42
2023/03/14 01:35:13;;;;;;;;;;;;;;;15.63;46.34;101243.63;4998272;28;1208;-42
2023/03/14 01:37:39;;;;;;;;;;;;;;;15.36;47.01;101247.13;4996861;28;1535;-41
2023/03/14 01:40:09;;;;;;;;;;;;;;;16.21;45.15;101246.72;4996517;28;1153;-45
2023/03/14 01:42:35;;;;;;;;;;;;;;;17.35;42.58;101248.44;4996610;28;1168;-44
2023/03/14 01:45:01;;;;;;;;;;;;;;;16.21;44.91;101246.72;4997938;28;1247;-44
2023/03/14 01:47:27;;;;;;;;;;;;;;;15.73;46.22;101254.69;4996684;28;1970;-43
2023/03/14 01:49:55;;;;;;;;;;;;;;;15.45;47.01;101250.25;4996974;28;1329;-41
2023/03/14 01:52:37;;;;;;;;;;;;;;;15.58;46.70;101251.78;4996916;28;1188;-43
2023/03/14 01:55:06;;;;;;;;;;;;;;;17.18;42.98;101245.88;4986397;28;1140;-44
2023/03/14 01:57:32;;;;;;;;;;;;;;;16.22;45.12;101250.31;4997796;28;1017;-43
2023/03/14 02:00:04;;;;;;;;;;;;;;;15.71;46.21;101247.81;5013135;28;1223;-45
2023/03/14 02:02:39;;;;;;;;;;;;;;;15.40;47.00;101241.94;5027012;28;1108;-46
2023/03/14 02:05:05;;;;;;;;;;;;;;;15.20;47.61;101240.59;5018886;28;894;-43
2023/03/14 02:07:35;;;;;;;;;;;;;;;16.65;44.23;101231.19;4976933;28;1899;-42
2023/03/14 02:10:10;;;;;;;;;;;;;;;16.88;43.36;101228.09;4974457;28;1328;-40
2023/03/14 02:12:36;;;;;;;;;;;;;;;15.94;45.48;101233.03;4996462;28;1164;-43
2023/03/14 02:15:17;;;;;;;;;;;;;;;15.57;46.69;101239.13;5010432;28;1347;-40
2023/03/14 02:17:57;;;;;;;;;;;;;;;15.36;46.97;101247.13;4996248;28;1546;-45
2023/03/14 02:21:10;;;;;;;;;;;;;;;16.19;45.26;101243.44;4996144;28;1404;-38
2023/03/14 02:23:39;;;;;;;;;;;;;;;17.04;43.15;101248.25;4997328;28;1151;-45
2023/03/14 02:26:27;;;;;;;;;;;;;;;16.01;45.59;101258.34;4995883;28;1241;-47
2023/03/14 02:28:53;;;;;;;;;;;;;;;15.54;46.76;101253.38;5022923;28;2059;-43
2023/03/14 02:31:20;;;;;;;;;;;;;;;15.34;47.17;101252.00;4988839;28;2054;-42
2023/03/14 02:33:47;;;;;;;;;;;;;;;15.26;47.49;101255.19;5011719;28;1119;-44
2023/03/14 02:36:13;;;;;;;;;;;;;;;16.85;43.45;101260.75;4995997;28;1101;-44
2023/03/14 02:38:53;;;;;;;;;;;;;;;16.54;44.18;101266.81;4996147;28;1264;-41
2023/03/14 02:41:18;;;;;;;;;;;;;;;15.73;45.94;101273.88;5011783;28;1143;-42
2023/03/14 02:43:51;;;;;;;;;;;;;;;15.47;46.58;101270.00;4995790;28;1311;-44
2023/03/14 02:46:18;;;;;;;;;;;;;;;15.36;47.29;101271.78;4995331;28;1386;-43
2023/03/14 02:48:50;;;;;;;;;;;;;;;16.96;43.21;101264.41;4995535;28;1914;-43
2023/03/14 02:51:16;;;;;;;;;;;;;;;16.55;44.10;101270.38;4995874;28;1170;-39
2023/03/14 02:53:44;;;;;;;;;;;;;;;15.77;45.87;101273.38;4995338;28;1637;-43
2023/03/14 02:56:11;;;;;;;;;;;;;;;15.48;46.50;101262.63;4995442;28;1252;-45
2023/03/14 02:58:37;;;;;;;;;;;;;;;16.16;45.16;101265.06;4997219;28;1139;-39
2023/03/14 03:01:21;;;;;;;;;;;;;;;16.83;43.35;101268.41;4996927;28;1187;-40
2023/03/14 03:03:47;;;;;;;;;;;;;;;15.87;45.86;101259.81;4996548;28;1063;-39
2023/03/14 03:06:12;;;;;;;;;;;;;;;15.54;46.66;101264.31;4996806;28;826;-45
2023/03/14 03:08:38;;;;;;;;;;;;;;;15.29;46.98;101257.44;4996836;28;1981;-44
2023/03/14 03:11:04;;;;;;;;;;;;;;;15.35;47.09;101259.16;4995652;28;1316;-41
2023/03/14 03:13:31;;;;;;;;;;;;;;;17.02;43.10;101255.94;5028422;28;1096;-44
2023/03/14 03:15:59;;;;;;;;;;;;;;;16.36;44.64;101259.78;4995017;28;1230;-41
2023/03/14 03:18:24;;;;;;;;;;;;;;;15.81;45.84;101255.34;4996484;28;1125;-42
2023/03/14 03:20:50;;;;;;;;;;;;;;;15.45;46.79;101249.44;4996666;28;1226;-46
2023/03/14 03:23:15;;;;;;;;;;;;;;;15.24;46.99;101249.16;4995458;28;1064;-43
2023/03/14 03:25:41;;;;;;;;;;;;;;;16.75;43.65;101256.81;4995172;28;1275;-41
2023/03/14 03:28:07;;;;;;;;;;;;;;;16.76;43.57;101246.69;4997595;28;1981;-44
2023/03/14 03:30:38;;;;;;;;;;;;;;;15.91;45.56;101247.25;4999471;28;1351;-44
2023/03/14 03:33:04;;;;;;;;;;;;;;;15.53;46.71;101243.50;5000875;28;1184;-41
2023/03/14 03:35:29;;;;;;;;;;;;;;;15.32;47.02;101237.75;4999520;28;1192;-46
2023/03/14 03:37:56;;;;;;;;;;;;;;;16.83;43.58;101225.31;4999557;28;1284;-42
2023/03/14 03:40:21;;;;;;;;;;;;;;;16.34;44.25;101219.94;4999088;28;1135;-42
2023/03/14 03:42:47;;;;;;;;;;;;;;;15.68;46.07;101221.75;4999073;28;1585;-44
2023/03/14 03:45:13;;;;;;;;;;;;;;;15.39;46.63;101230.16;4999262;28;1244;-42
2023/03/14 03:47:48;;;;;;;;;;;;;;;15.23;47.16;101237.38;4999025;28;1905;-44
2023/03/14 03:50:13;;;;;;;;;;;;;;;16.79;43.72;101234.31;5000395;28;1164;-43
2023/03/14 03:52:39;;;;;;;;;;;;;;;16.69;43.53;101227.66;4998780;28;1110;-41
2023/03/14 03:55:04;;;;;;;;;;;;;;;15.84;45.49;101238.41;5000410;28;1021;-43
2023/03/14 03:57:30;;;;;;;;;;;;;;;15.53;46.51;101230.63;5031546;28;1861;-41
2023/03/14 03:59:56;;;;;;;;;;;;;;;15.93;45.78;101228.63;4999024;28;1320;-39
2023/03/14 04:02:21;;;;;;;;;;;;;;;17.34;42.22;101224.78;4998693;28;2050;-38
2023/03/14 04:04:49;;;;;;;;;;;;;;;16.32;44.36;101224.88;4998777;28;1150;-43
2023/03/14 04:07:14;;;;;;;;;;;;;;;15.73;45.77;101226.47;4998572;28;1906;-39
2023/03/14 04:09:41;;;;;;;;;;;;;;;15.49;46.56;101226.72;4998851;28;1220;-41
2023/03/14 04:12:20;;;;;;;;;;;;;;;15.25;47.16;101233.53;4999922;28;1184;-46
2023/03/14 04:15:05;;;;;;;;;;;;;;;15.93;45.83;101234.09;4999054;28;1295;-41
2023/03/14 04:17:31;;;;;;;;;;;;;;;17.25;42.52;101238.22;5024658;28;1056;-39
2023/03/14 04:19:56;;;;;;;;;;;;;;;16.40;44.29;101225.22;4991563;28;1248;-43
2023/03/14 04:22:30;;;;;;;;;;;;;;;15.74;46.06;101228.13;4998434;28;1241;-44
2023/03/14 04:24:55;;;;;;;;;;;;;;;15.45;46.42;101216.53;4998268;28;1313;-44
2023/03/14 04:27:21;;;;;;;;;;;;;;;15.23;46.98;101215.44;4999847;28;1917;-40
2023/03/14 04:29:47;;;;;;;;;;;;;;;16.77;43.59;101220.84;4998156;28;1270;-42
2023/03/14 04:32:15;;;;;;;;;;;;;;;16.62;43.67;101218.84;4998487;28;1421;-43
2023/03/14 04:34:42;;;;;;;;;;;;;;;15.76;45.89;101225.13;4998308;28;1140;-47
2023/03/14 04:37:07;;;;;;;;;;;;;;;15.47;46.34;101228.88;4998415;28;1193;-47
2023/03/14 04:39:38;;;;;;;;;;;;;;;16.10;44.95;101227.69;4997337;28;1283;-44
2023/03/14 04:42:14;;;;;;;;;;;;;;;16.93;42.84;101222.63;4999457;28;934;-45
2023/03/14 04:44:40;;;;;;;;;;;;;;;15.97;44.97;101224.28;4997829;28;1107;-42
2023/03/14 04:47:06;;;;;;;;;;;;;;;15.52;46.51;101222.66;4998060;28;1976;-41
2023/03/14 04:49:33;;;;;;;;;;;;;;;15.35;46.70;101220.78;4997661;28;1135;-41
2023/03/14 04:51:59;;;;;;;;;;;;;;;15.18;47.25;101220.00;4998206;28;1326;-40
2023/03/14 04:54:27;;;;;;;;;;;;;;;16.80;43.58;101208.50;4996771;28;1398;-45
2023/03/14 04:56:56;;;;;;;;;;;;;;;16.63;43.50;101209.47;4998067;28;1131;-44
2023/03/14 04:59:22;;;;;;;;;;;;;;;15.81;45.56;101209.59;4997443;28;1379;-44
2023/03/14 05:01:50;;;;;;;;;;;;;;;15.46;46.62;101213.53;4997624;28;1057;-38
2023/03/14 05:04:47;;;;;;;;;;;;;;;15.32;47.03;101213.09;4975698;28;1097;-41
2023/03/14 05:07:33;;;;;;;;;;;;;;;17.00;42.90;101219.66;4998532;28;1985;-38
2023/03/14 05:10:25;;;;;;;;;;;;;;;16.48;44.08;101212.97;4971766;28;1168;-40
2023/03/14 05:13:14;;;;;;;;;;;;;;;15.73;45.90;101224.53;5030888;28;1269;-40
2023/03/14 05:15:43;;;;;;;;;;;;;;;15.44;46.47;101225.84;4998888;28;1211;-40
2023/03/14 05:18:28;;;;;;;;;;;;;;;15.22;46.86;101218.41;4998489;28;1092;-40
2023/03/14 05:21:23;;;;;;;;;;;;;;;16.95;43.15;101216.88;4998364;28;1261;-41
2023/03/14 05:24:09;;;;;;;;;;;;;;;16.07;44.72;101226.28;4994687;28;1132;-41
2023/03/14 05:27:04;;;;;;;;;;;;;;;15.50;46.37;101227.53;4989474;28;1906;-42
2023/03/14 05:29:50;;;;;;;;;;;;;;;15.26;46.79;101222.31;4997037;28;1216;-44
2023/03/14 05:32:48;;;;;;;;;;;;;;;16.90;43.27;101223.19;4975943;28;1354;-40
2023/03/14 05:35:32;;;;;;;;;;;;;;;16.47;44.05;101225.03;4998180;28;938;-38
2023/03/14 05:38:32;;;;;;;;;;;;;;;15.69;45.66;101228.88;4957127;29;1320;-45
2023/03/14 05:41:21;;;;;;;;;;;;;;;15.38;46.53;101225.75;4979383;28;1153;-40
2023/03/14 05:44:05;;;;;;;;;;;;;;;15.17;47.17;101221.09;4997803;28;1084;-40
2023/03/14 05:46:45;;;;;;;;;;;;;;;16.60;43.77;101221.81;4998623;28;960;-43
2023/03/14 05:49:43;;;;;;;;;;;;;;;16.75;43.21;101221.09;4985231;28;1376;-41
2023/03/14 05:52:29;;;;;;;;;;;;;;;15.85;45.30;101218.09;4996917;28;1188;-38
2023/03/14 05:55:13;;;;;;;;;;;;;;;15.51;46.12;101221.00;4996516;28;1173;-43
2023/03/14 05:58:05;;;;;;;;;;;;;;;15.22;47.08;101212.94;4976347;28;1271;-40
2023/03/14 06:01:03;;;;;;;;;;;;;;;17.01;42.98;101210.34;4962090;28;1347;-43
2023/03/14 06:03:48;;;;;;;;;;;;;;;16.18;44.48;101210.78;4999305;28;1207;-45
2023/03/14 06:06:14;;;;;;;;;;;;;;;15.59;46.14;101217.81;4996465;28;1117;-43
2023/03/14 06:08:40;;;;;;;;;;;;;;;15.42;46.57;101223.34;4996629;28;2016;-42
2023/03/14 06:11:07;;;;;;;;;;;;;;;15.20;46.94;101212.38;4996239;28;1150;-37
2023/03/14 06:13:32;;;;;;;;;;;;;;;16.86;43.15;101216.53;4996613;28;1149;-39
2023/03/14 06:15:58;;;;;;;;;;;;;;;15.63;46.20;101221.69;4997552;28;1061;-42
2023/03/14 06:18:23;;;;;;;;;;;;;;;15.59;46.67;101217.81;4997403;28;1088;-41
2023/03/14 06:20:49;;;;;;;;;;;;;;;16.14;44.94;101221.41;4995842;28;2162;-40
2023/03/14 06:23:22;;;;;;;;;;;;;;;15.73;46.38;101221.78;4995629;28;1285;-39
2023/03/14 06:25:48;;;;;;;;;;;;;;;17.57;42.14;101222.66;4986875;28;1245;-46
2023/03/14 06:28:14;;;;;;;;;;;;;;;16.11;45.38;101223.88;4992161;28;1906;-42
2023/03/14 06:30:40;;;;;;;;;;;;;;;15.55;46.01;101222.13;4995943;28;1188;-44
2023/03/14 06:33:08;;;;;;;;;;;;;;;15.64;46.17;101219.75;5022369;28;1259;-41
2023/03/14 06:35:34;;;;;;;;;;;;;;;16.95;43.53;101214.13;4986877;28;890;-43
2023/03/14 06:37:59;;;;;;;;;;;;;;;15.81;46.51;101208.75;4993984;28;1148;-42
2023/03/14 06:40:25;;;;;;;;;;;;;;;17.85;41.88;101215.06;5020840;28;1258;-45
2023/03/14 06:43:03;;;;;;;;;;;;;;;16.83;44.22;101208.81;5021507;28;1398;-46
2023/03/14 06:45:31;;;;;;;;;;;;;;;16.02;45.63;101213.38;4990201;28;1777;-43
2023/03/14 06:47:57;;;;;;;;;;;;;;;15.78;45.68;101209.22;4997428;28;1910;-41
2023/03/14 06:50:30;;;;;;;;;;;;;;;16.79;44.27;101206.84;4996044;28;1410;-43
2023/03/14 06:52:57;;;;;;;;;;;;;;;16.24;45.51;101201.47;4995569;28;1123;-43
2023/03/14 06:55:25;;;;;;;;;;;;;;;18.14;41.25;101187.91;4995572;28;1119;-45
2023/03/14 06:57:52;;;;;;;;;;;;;;;16.90;43.84;101194.84;4995957;28;1416;-41
2023/03/14 07:00:19;;;;;;;;;;;;;;;16.21;45.26;101185.53;4995921;28;1228;-40
2023/03/14 07:02:44;;;;;;;;;;;;;;;17.32;43.03;101185.75;5014728;28;1135;-44
2023/03/14 07:05:25;;;;;;;;;;;;;;;16.22;45.12;101192.69;5024703;28;1172;-41
2023/03/14 07:07:51;;;;;;;;;;;;;;;17.72;42.39;101186.97;4995050;28;1895;-39
2023/03/14 07:10:17;;;;;;;;;;;;;;;16.81;44.30;101180.78;4995605;28;1261;-40
2023/03/14 07:12:42;;;;;;;;;;;;;;;16.19;45.21;101171.28;5027942;28;1174;-40
2023/03/14 07:15:08;;;;;;;;;;;;;;;17.65;42.63;101180.09;4996156;28;1108;-43
2023/03/14 07:17:33;;;;;;;;;;;;;;;16.64;44.51;101180.94;4996876;28;1136;-42
2023/03/14 07:20:00;;;;;;;;;;;;;;;16.10;45.50;101178.31;4995151;28;1115;-41
2023/03/14 07:22:26;;;;;;;;;;;;;;;17.24;43.74;101170.59;4995504;28;1206;-41
2023/03/14 07:24:51;;;;;;;;;;;;;;;16.41;45.18;101173.91;4995307;28;1199;-38
2023/03/14 07:27:18;;;;;;;;;;;;;;;16.11;45.09;101172.56;4995067;28;1983;-43
2023/03/14 07:29:44;;;;;;;;;;;;;;;17.31;43.26;101170.34;4989710;28;1422;-37
2023/03/14 07:32:14;;;;;;;;;;;;;;;16.32;45.19;101170.00;4994192;28;1384;-43
2023/03/14 07:34:43;;;;;;;;;;;;;;;17.50;43.21;101169.84;4994329;28;1246;-38
2023/03/14 07:37:08;;;;;;;;;;;;;;;16.86;44.19;101160.78;4995633;28;922;-40
2023/03/14 07:39:34;;;;;;;;;;;;;;;16.24;45.32;101163.91;4994996;28;1249;-36
2023/03/14 07:42:05;;;;;;;;;;;;;;;17.34;43.11;101158.81;5027609;28;1363;-40
2023/03/14 07:44:48;;;;;;;;;;;;;;;16.51;45.20;101159.44;4995399;28;1054;-39
2023/03/14 07:47:13;;;;;;;;;;;;;;;18.49;40.85;101155.13;4996270;28;1902;-45
2023/03/14 07:49:39;;;;;;;;;;;;;;;17.35;43.11;101152.22;4996246;28;1125;-40
2023/03/14 07:52:04;;;;;;;;;;;;;;;16.63;44.65;101154.56;4996225;28;1164;-37
2023/03/14 07:54:30;;;;;;;;;;;;;;;16.50;44.93;101144.06;4995688;28;1012;-40
2023/03/14 07:56:55;;;;;;;;;;;;;;;17.28;43.27;101146.97;4996124;28;1138;-45
2023/03/14 07:59:21;;;;;;;;;;;;;;;16.49;44.88;101134.16;4983284;28;1230;-36
2023/03/14 08:01:46;;;;;;;;;;;;;;;18.06;41.81;101137.00;4996567;28;1228;-42
2023/03/14 08:04:12;;;;;;;;;;;;;;;16.90;44.00;101142.66;4993827;28;1313;-42
2023/03/14 08:06:37;;;;;;;;;;;;;;;16.52;44.71;101125.41;4993055;28;986;-41
2023/03/14 08:09:03;;;;;;;;;;;;;;;16.14;45.15;101130.06;4995923;28;1907;-37
2023/03/14 08:11:29;;;;;;;;;;;;;;;17.58;42.77;101131.66;4995113;28;1220;-36
2023/03/14 08:13:55;;;;;;;;;;;;;;;16.49;45.07;101134.16;4997986;28;1144;-36
2023/03/14 08:16:21;;;;;;;;;;;;;;;16.53;45.33;101124.31;4999491;28;1041;-39
2023/03/14 08:18:46;;;;;;;;;;;;;;;17.13;43.78;101122.19;4999080;28;1057;-42
2023/03/14 08:21:12;;;;;;;;;;;;;;;16.48;44.71;101108.66;4999602;28;1204;-37
2023/03/14 08:23:37;;;;;;;;;;;;;;;17.44;43.32;101109.34;4999474;28;1152;-39
2023/03/14 08:26:03;;;;;;;;;;;;;;;16.66;44.54;101110.13;4998284;28;1088;-39
2023/03/14 08:28:30;;;;;;;;;;;;;;;18.02;41.78;101119.38;4999136;28;1901;-41
2023/03/14 08:30:56;;;;;;;;;;;;;;;18.12;41.39;101107.53;4998859;28;1154;-35
2023/03/14 08:33:22;;;;;;;;;;;;;;;16.96;43.86;101107.81;4999133;28;1327;-39
2023/03/14 08:35:47;;;;;;;;;;;;;;;16.46;44.45;101104.50;4999460;28;1139;-38
2023/03/14 08:38:13;;;;;;;;;;;;;;;17.07;44.01;101115.84;4998975;28;1258;-36
2023/03/14 08:40:38;;;;;;;;;;;;;;;16.97;44.03;101102.06;4997922;28;1216;-35
2023/03/14 08:43:04;;;;;;;;;;;;;;;16.34;44.94;101101.94;4998703;28;1172;-38
2023/03/14 08:45:29;;;;;;;;;;;;;;;16.28;44.79;101101.09;4998629;28;1068;-39
2023/03/14 08:47:55;;;;;;;;;;;;;;;17.53;42.74;101076.66;4998203;28;1981;-38
2023/03/14 08:50:20;;;;;;;;;;;;;;;16.58;44.86;101074.94;4998716;28;1155;-40
2023/03/14 08:52:46;;;;;;;;;;;;;;;17.07;43.96;101071.88;4998232;28;1068;-37
2023/03/14 08:55:11;;;;;;;;;;;;;;;17.13;43.63;101072.72;4998700;28;1119;-35
2023/03/14 08:57:37;;;;;;;;;;;;;;;16.36;45.03;101073.16;4998997;28;1155;-40
2023/03/14 09:00:05;;;;;;;;;;;;;;;17.48;43.17;101075.84;4998689;28;998;-39
2023/03/14 09:02:30;;;;;;;;;;;;;;;16.69;44.48;101076.66;5029525;28;1138;-40
2023/03/14 09:04:56;;;;;;;;;;;;;;;16.23;45.18;101066.22;4998952;28;1057;-37
2023/03/14 09:07:21;;;;;;;;;;;;;;;16.08;44.76;101064.19;4998216;28;1898;-39
2023/03/14 09:09:47;;;;;;;;;;;;;;;17.04;43.91;101057.84;4999075;28;1060;-38
2023/03/14 09:12:12;;;;;;;;;;;;;;;16.28;45.02;101064.59;4997044;28;1484;-43
2023/03/14 09:14:38;;;;;;;;;;;;;;;17.80;42.31;101056.34;4985429;28;1236;-42
2023/03/14 09:17:03;;;;;;;;;;;;;;;17.10;43.33;101059.53;4994041;28;1137;-38
2023/03/14 09:19:29;;;;;;;;;;;;;;;16.49;44.86;101054.56;4997813;28;1057;-37
2023/03/14 09:21:54;;;;;;;;;;;;;;;17.52;42.82;101049.44;4998917;28;1116;-43
2023/03/14 09:24:20;;;;;;;;;;;;;;;16.65;44.46;101048.06;4995798;28;1161;-40
2023/03/14 09:26:45;;;;;;;;;;;;;;;18.33;41.31;101049.69;4998658;28;1255;-42
2023/03/14 09:29:11;;;;;;;;;;;;;;;17.69;42.37;101051.94;4998508;28;1910;-37
2023/03/14 09:31:36;;;;;;;;;;;;;;;16.87;44.17;101036.06;4998560;28;1108;-37
2023/03/14 09:34:02;;;;;;;;;;;;;;;17.75;42.40;101043.41;4998210;28;1107;-44
2023/03/14 09:36:27;;;;;;;;;;;;;;;16.87;44.26;101047.03;4998328;28;1112;-41
2023/03/14 09:38:53;;;;;;;;;;;;;;;17.06;44.12;101048.25;4998533;28;1103;-44
2023/03/14 09:41:21;;;;;;;;;;;;;;;17.61;42.47;101042.28;4997395;28;1102;-45
2023/03/14 09:43:47;;;;;;;;;;;;;;;16.76;44.38;101043.44;4997935;28;1051;-40
2023/03/14 09:46:12;;;;;;;;;;;;;;;16.89;44.26;101044.91;4998258;28;1020;-44
2023/03/14 09:48:38;;;;;;;;;;;;;;;17.16;43.49;101041.13;4997938;28;1976;-41
2023/03/14 09:51:05;;;;;;;;;;;;;;;16.58;44.59;101042.00;4983858;28;1413;-41
2023/03/14 09:53:38;;;;;;;;;;;;;;;16.43;44.48;101034.50;4998426;28;1080;-41
2023/03/14 09:56:04;;;;;;;;;;;;;;;17.76;42.23;101034.03;4997664;28;1124;-43
2023/03/14 09:58:30;;;;;;;;;;;;;;;16.63;44.79;101022.78;4997111;28;1107;-41
2023/03/14 10:00:55;;;;;;;;;;;;;;;16.41;44.79;101018.31;4997512;28;1228;-41
2023/03/14 10:03:39;;;;;;;;;;;;;;;17.34;43.02;101026.88;4996793;28;1025;-42
2023/03/14 10:06:09;;;;;;;;;;;;;;;16.34;45.13;101020.47;4996600;28;1094;-46
2023/03/14 10:08:35;;;;;;;;;;;;;;;17.33;43.59;101018.91;5017757;28;1983;-44
2023/03/14 10:11:02;;;;;;;;;;;;;;;16.56;44.63;101008.47;4984354;28;1058;-44
2023/03/14 10:13:29;;;;;;;;;;;;;;;16.29;44.74;101009.44;4997703;28;1113;-40
2023/03/14 10:16:01;;;;;;;;;;;;;;;17.65;42.49;101004.91;4998320;28;1207;-40
2023/03/14 10:18:28;;;;;;;;;;;;;;;16.55;44.60;100998.59;4997805;28;1168;-45
2023/03/14 10:21:03;;;;;;;;;;;;;;;17.17;43.62;101005.13;4996782;28;1227;-44
2023/03/14 10:23:29;;;;;;;;;;;;;;;17.07;43.52;100992.22;4997413;28;1033;-42
2023/03/14 10:26:03;;;;;;;;;;;;;;;16.41;44.69;100995.50;4996748;28;1155;-46
2023/03/14 10:28:33;;;;;;;;;;;;;;;17.68;42.27;100993.34;4997366;28;1922;-39
2023/03/14 10:30:59;;;;;;;;;;;;;;;16.75;44.55;100987.69;4997929;28;1200;-41
2023/03/14 10:33:28;;;;;;;;;;;;;;;16.20;45.10;100981.69;4997290;28;927;-40
2023/03/14 10:35:55;;;;;;;;;;;;;;;16.50;44.78;100976.63;4997407;28;1144;-40
2023/03/14 10:38:22;;;;;;;;;;;;;;;16.95;43.86;100972.41;4989458;28;1396;-45
2023/03/14 10:40:52;;;;;;;;;;;;;;;16.33;44.88;100977.63;5019150;28;1053;-39
2023/03/14 10:43:21;;;;;;;;;;;;;;;18.30;41.00;100960.25;5027496;28;1131;-44
2023/03/14 10:45:52;;;;;;;;;;;;;;;16.91;43.92;100952.91;4995337;28;1171;-42
2023/03/14 10:48:19;;;;;;;;;;;;;;;16.50;44.53;100951.91;4995837;28;1980;-43
2023/03/14 10:50:54;;;;;;;;;;;;;;;16.21;44.46;100944.09;4996533;28;1117;-38
2023/03/14 10:53:19;;;;;;;;;;;;;;;16.93;43.78;100931.47;4984459;28;1064;-41
2023/03/14 10:55:45;;;;;;;;;;;;;;;16.45;44.54;100932.69;4992889;28;976;-40
2023/03/14 10:58:19;;;;;;;;;;;;;;;16.69;44.40;100928.38;4996371;28;1080;-41
2023/03/14 11:00:46;;;;;;;;;;;;;;;16.91;43.82;100919.94;4996758;28;1155;-43
2023/03/14 11:03:12;;;;;;;;;;;;;;;16.25;45.28;100912.28;4995557;28;1227;-45
2023/03/14 11:05:38;;;;;;;;;;;;;;;16.69;44.46;100911.91;4995203;28;1157;-43
2023/03/14 11:08:22;;;;;;;;;;;;;;;16.76;44.18;100912.47;4996377;28;1910;-39
2023/03/14 11:10:48;;;;;;;;;;;;;;;16.28;44.78;100898.03;4996184;28;1075;-39
2023/03/14 11:13:14;;;;;;;;;;;;;;;17.47;42.83;100877.06;4982256;28;980;-45
2023/03/14 11:15:49;;;;;;;;;;;;;;;16.50;44.63;100886.03;4996576;28;1148;-41
2023/03/14 11:18:33;;;;;;;;;;;;;;;18.35;41.04;100872.13;4995967;28;1112;-36
2023/03/14 11:21:00;;;;;;;;;;;;;;;17.32;43.08;100863.31;4995544;28;1085;-35
2023/03/14 11:23:32;;;;;;;;;;;;;;;16.73;44.11;100868.22;4994758;28;1049;-36
2023/03/14 11:26:02;;;;;;;;;;;;;;;16.48;44.36;100858.03;4995735;28;1195;-39
2023/03/14 11:28:30;;;;;;;;;;;;;;;17.49;42.75;100843.78;4994929;28;1984;-35
2023/03/14 11:31:08;;;;;;;;;;;;;;;16.79;44.46;100850.69;4996133;28;1333;-35
2023/03/14 11:33:35;;;;;;;;;;;;;;;18.83;39.96;100840.44;4996274;28;934;-36
2023/03/14 11:36:06;;;;;;;;;;;;;;;17.53;42.39;100837.47;4995454;28;1077;-36
2023/03/14 11:38:34;;;;;;;;;;;;;;;16.86;43.85;100834.75;4996252;28;1069;-37
2023/03/14 11:41:00;;;;;;;;;;;;;;;16.57;43.96;100823.47;4995922;28;1228;-35
2023/03/14 11:43:28;;;;;;;;;;;;;;;17.61;42.28;100811.31;4996284;28;1116;-37
2023/03/14 11:45:54;;;;;;;;;;;;;;;16.61;44.38;100819.06;4995953;28;1122;-35
2023/03/14 11:48:25;;;;;;;;;;;;;;;16.50;44.36;100814.66;4997533;28;1914;-34
2023/03/14 11:50:52;;;;;;;;;;;;;;;16.21;44.61;100807.72;4999284;28;981;-35
2023/03/14 11:53:39;;;;;;;;;;;;;;;16.19;44.30;100801.69;5000196;28;1085;-35
2023/03/14 11:56:09;;;;;;;;;;;;;;;17.72;42.04;100790.91;4996027;28;1094;-35
2023/03/14 11:58:34;;;;;;;;;;;;;;;16.65;44.33;100795.47;4999282;28;1177;-35
2023/03/14 12:01:01;;;;;;;;;;;;;;;16.28;44.62;100795.69;4999401;28;1148;-36
2023/03/14 12:03:27;;;;;;;;;;;;;;;17.25;43.36;100778.41;4998889;28;1069;-36
2023/03/14 12:06:11;;;;;;;;;;;;;;;16.75;44.34;100779.00;4999898;28;1107;-35
2023/03/14 12:08:52;;;;;;;;;;;;;;;16.25;44.70;100769.63;4999360;28;1906;-36
2023/03/14 12:11:19;;;;;;;;;;;;;;;17.71;42.08;100769.22;4998987;28;1061;-37
2023/03/14 12:13:51;;;;;;;;;;;;;;;16.56;44.44;100762.25;4998758;28;1045;-34
2023/03/14 12:16:23;;;;;;;;;;;;;;;17.76;42.20;100759.00;4999651;28;1223;-34
2023/03/14 12:18:48;;;;;;;;;;;;;;;17.22;43.04;100754.25;4999093;28;1091;-35
2023/03/14 12:21:14;;;;;;;;;;;;;;;16.52;44.40;100752.91;4999577;28;889;-34
2023/03/14 12:23:45;;;;;;;;;;;;;;;16.34;44.71;100757.03;4999616;28;1147;-33
2023/03/14 12:26:11;;;;;;;;;;;;;;;16.22;44.59;100739.97;4994759;28;1029;-33
2023/03/14 12:28:36;;;;;;;;;;;;;;;17.20;43.03;100735.28;4990957;28;1973;-35
2023/03/14 12:31:20;;;;;;;;;;;;;;;16.47;44.54;100738.38;4999345;28;1438;-35
2023/03/14 12:33:46;;;;;;;;;;;;;;;17.84;42.04;100721.84;4998777;28;1192;-35
2023/03/14 12:36:12;;;;;;;;;;;;;;;16.84;43.91;100731.75;4998412;28;1197;-34
2023/03/14 12:38:58;;;;;;;;;;;;;;;16.30;44.68;100725.72;4999090;28;1100;-34
2023/03/14 12:41:38;;;;;;;;;;;;;;;17.37;42.84;100723.97;4997761;28;1138;-34
2023/03/14 12:44:22;;;;;;;;;;;;;;;16.48;44.43;100724.38;4997445;28;1411;-35
2023/03/14 12:46:48;;;;;;;;;;;;;;;16.18;44.59;100714.19;4999476;28;1043;-34
2023/03/14 12:49:13;;;;;;;;;;;;;;;17.42;42.57;100710.22;4997774;28;1989;-34
2023/03/14 12:51:44;;;;;;;;;;;;;;;16.52;44.70;100692.53;4999266;28;1116;-35
2023/03/14 12:54:16;;;;;;;;;;;;;;;16.28;44.64;100703.22;4998156;28;1123;-34
2023/03/14 12:57:00;;;;;;;;;;;;;;;17.41;42.74;100694.81;4998933;28;1087;-36
2023/03/14 12:59:35;;;;;;;;;;;;;;;17.38;43.36;100698.13;4997884;28;1196;-33